Current | Forecast
Updated: 9:00 PM WAT on March 21, 2019
Observed at Garoua, Cameroon
Temperature 34°C
Humidity 32%
Dew Point 15°C
Wind Variable at 4 km/h
Pressure 1005 hPa (Rising)
Conditions Clear
Visibility 8.0 kilometers
UV N/A
Clouds
Yesterday's Maximum 43°C
Yesterday's Minimum 20°C approx.
Yesterday's Cooling Degree Days 24 approx.
Sunrise6:12 AM WAT
Sunset6:19 PM WAT
Moon Rise6:58 PM WAT
Moon Set6:33 AM WAT
Moon PhaseMoon Phase
Full Moon
Raw METARMETAR FKKR 212000Z VRB02KT 8000 NSC 34/15 Q1005 NOSIG



Units: English | Metric

Find the Weather for any City, State or Zipcode, or Country:

U.S. State List | Severe Weather | Tropical Storms | Ski Conditions
United States | Canada | Central America | South America | Asia | Europe | Australia | Africa | Islands

Weather Underground

© Copyright 2019
The Weather Company, LLC